PreDB.eu

music predb - trance, techno, house, hardstyle, hardcore
updated: 2026-05-06 11:40:54
2026-05-01 00:32:48 Techno 6 27 Rulezz-Universal_Space_EP-(UFOR454)-WEB-2026-PTC
2026-05-01 00:32:47 Techno 6 26 Rous_B-Mogotes_EP-(XR639)-WEB-2026-PTC
2026-05-01 00:32:32 Techno 8 73 Yahya--Adore_EP-(LR051)-WEB-2026-YALLA
2026-05-01 00:32:29 Techno 8 51 K.E.N.Y.U.-Kinetic_Impact-(TRA258)-WEB-2026-PTC
2026-05-01 00:32:29 Techno 7 39 Michael_Morra-7Ymbol-(DRKF79)-WEB-2026-PTC
2026-05-01 00:31:34 Techno 8 48 DP-6-Caveman_Returns-(DR309)-WEB-2026-PTC
2026-05-01 00:31:33 Techno 7 37 M.R.T.N-Anagram__Intelekt-(IDRA005)-WEB-2026-PTC
2026-05-01 00:30:57 Techno 7 42 Hallweg-Inmutable-(HW008)-WEB-2026-PTC
2026-05-01 00:30:48 Techno 6 34 Diego_Olarte-Stay-(UNS096)-WEB-2026-PTC
2026-05-01 00:30:48 Techno 7 41 Charles_Mooyaart-Never_EP-(HYN043)-WEB-2026-PTC
2026-05-01 00:30:19 Techno 10 70 Anteac-Dead_Flowers-(XR640)-WEB-2026-PTC
2026-05-01 00:16:57 Techno 6 27 TimeKube_and_Bedez-Anka-(GRY004)-WEB-2026-PTC
2026-05-01 00:15:44 Techno 8 50 Techflex-Railbreaker-(SHST0077)-WEB-2026-PTC
2026-05-01 00:15:29 Techno 6 21 Ronny_Luft-Berlin_Meine_Stadt-(VBR210)-WEB-2026-PTC
2026-05-01 00:15:25 Techno 8 53 MOFS-MASK-(MPHT435)-WEB-2026-PTC
2026-05-01 00:15:05 Techno 6 20 Ortiz_Karev-Necrogenesis-(KRR0076)-WEB-2026-PTC
2026-05-01 00:14:36 Techno 6 26 Isaias-When_The_Night_Turns_Red-(TAM411E)-WEB-2026-PTC
2026-05-01 00:14:35 Techno 8 52 Hannes_Lang_x_Bruecke-W133015-(W133015)-WEB-2026-PTC
2026-05-01 00:13:47 Techno 6 28 D-Unity_and_Mueld3r-The_Interview-(VTK012)-WEB-2026-PTC
2026-05-01 00:13:14 Techno 6 21 Alyona_Axyonova-Rage-(KALTSKIN018)-WEB-2026-PTC
2026-04-30 23:57:39 Techno 5 14 Persh-Choir_of_Shadows-(BT084)-SINGLE-WEB-2026-PTC
2026-04-30 23:57:06 Techno 7 40 DJ_Deep_Noise-Main_Train_Station_EP-(LNN205)-WEB-2026-PTC
2026-04-30 23:56:14 Techno 8 51 Das_Tier_(Col)-Molinos-(DSRM083)-WEB-2026-PTC
2026-04-30 23:56:13 Techno 6 28 Cristian_Reible-Behind_The_Light_EP-(TSP000)-WEB-2026-PTC
2026-04-30 23:55:48 Techno 5 14 Chriss_Jay-Remedy-(CPT067)-SINGLE-WEB-2026-PTC
2026-04-30 23:46:11 Techno 8 44 Fluctt-Subtle_Impacts_EP-(MKN005D)-WEB-2026-PTC
2026-04-30 23:46:09 Techno 6 30 A_Primitive_Trait-Pulse_Engine-(HWS208)-WEB-2026-PTC
2026-04-30 23:45:07 Techno 11 99 JfAlexsander--Vacaciones_En_El_Mar-(SUR896)-WEB-2026-YALLA
2026-04-30 23:45:06 Techno 10 86 VA-VA_IV-(NM027)-WEB-2026-PTC
2026-04-30 23:45:03 Techno 6 29 Romain_Richard-Hells_Paradise-(LRK015)-WEB-2026-PTC
2026-04-30 23:44:34 Techno 5 11 Tonino_and_Jil_Tanner-Roll_With_Me_(Extended_Mix)-(KNKT025E)-SINGLE-WEB-2026-PTC
2026-04-30 23:44:34 Techno 6 26 Sergy_Casttle-Xinobi_EP-(OVER387)-WEB-2026-PTC
2026-04-30 23:36:29 Techno 7 38 Jey_Di-Atomos-(HR0178)-WEB-2026-PTC
2026-04-30 23:36:01 Techno 6 26 FLIP_(OZ)-Thousand_Planets-(SR87)-WEB-2026-PTC
2026-04-30 23:26:52 Techno 8 59 Askkin-Get_Off_My_Cloud_EP-(ARTSX067)-WEB-2026-PTC_INT
2026-04-30 23:24:59 Techno 8 138 N-Series-Continental_Architecture-UN012-16BIT-WEB-FLAC-2026-WAVED
2026-04-30 23:23:16 Techno 8 50 MarAxe-Supreme_EP-(UKRSS289)-WEB-2026-PTC
2026-04-30 23:23:15 Techno 8 52 N-Series-Continental_Architecture-UN012-WEB-2026-WAV
2026-04-30 23:22:57 Techno 8 128 Maurer-The_Note_Learns_To_Breathe-TLG0008-16BIT-WEB-FLAC-2026-WAVED
2026-04-30 23:22:11 Techno 8 49 Maurer-The_Note_Learns_To_Breathe-TLG0008-WEB-2026-WAV
2026-04-30 23:17:18 Techno 10 66 KaioBarssalos-Whale-(SMILE013)-WEB-2026-PTC
2026-04-30 23:05:02 Techno 8 63 Ralinski_and_Bee_Lincoln-Daily_Dose-(SH252)-WEB-2026-PTC
2026-04-30 23:02:46 Techno 8 53 Fin_Cormack-Trilateration_EP-(NLD732)-WEB-2026-PTC
2026-04-30 22:12:20 Techno 6 26 Scuba--Puppets-(HF065S2)-WEB-2026-YALLA
2026-04-30 21:46:23 Techno 8 50 Deetron_presents_Soulmate-Sequence-(IT078)-WEB-2026-PTC
2026-04-30 21:45:28 Techno 8 56 9_8_r_p_m-Lectura_De_Cartas-(091R037)-WEB-2026-PTC
2026-04-30 21:42:11 Techno 5 69 Clouds-Diesel_Halo-SINGLE-24BIT-WEB-FLAC-2026-WAVED
2026-04-30 21:40:57 Techno 5 13 Clouds-Diesel_Halo-SINGLE-WEB-2026-WAV
2026-04-30 21:21:19 Techno 5 6 Zonnyx_-_Ta_Cabron-(HCR050)-SINGLE-WEB-2026-ZzZz
2026-04-30 21:19:14 Techno 6 15 Ziggy_X_-_DER_BASS_MUSS_FICKEN-(OTR018RY)-WEB-2026-ZzZz
2026-04-30 21:07:09 Techno 14 346 Tarkno_And_Remco_Beekwilder-SKETCHES_EP_Part_2-EMERALD031-16BIT-WEB-FLAC-2026-WAVED
2026-04-30 21:04:03 Techno 14 112 Tarkno_And_Remco_Beekwilder-SKETCHES_EP_Part_2-EMERALD031-WEB-2026-WAV
2026-04-30 20:51:28 Techno 15 115 DJ_Plant_Texture-Oscillazione-(LIES224)-WEB-2026-BB
2026-04-30 20:20:37 Dance 5 11 Fred_Genna_-_Still_Choosing_You-(2026A014)-SINGLE-WEB-2026-ZzZz
2026-04-30 20:02:03 Techno 5 7 Veezdom_And_Vibetalgic_-_Feel_It-(RAWR076)-SINGLE-WEB-2026-FMC
2026-04-30 20:02:02 Hardcore 5 5 Violent_Suspect_And_Fraternity_-_Demon-(BBR098)-SINGLE-WEB-2026-FMC
2026-04-30 20:02:02 Techno 5 10 Torsten_X_ANOLUXX_-_Breath_Taker-(GBF043)-SINGLE-WEB-2026-FMC
2026-04-30 20:01:16 Techno 6 14 Unproven_And_Akimbo_-_Unkimbo_Radio_EP-(BBR250)-WEB-2026-FMC
2026-04-30 20:00:29 Trance 6 30 ShadowsAndNightmares_-_Ephemeral_Life-(ABRD441)-REPACK-WEB-2026-FMC
2026-04-30 20:00:03 Techno 5 7 MARKOR_-_SICK-(ABSLT064)-SINGLE-WEB-2026-FMC
2026-04-30 19:59:43 Techno 5 8 Kruelty_And_Exproz_-_ANGRY_SCREECH_CLUB-(U13002)-SINGLE-WEB-2026-FMC
2026-04-30 19:59:24 Techno 6 14 Faceless_-_Shadows_Awakened_EP-(SPOON438)-WEB-2026-FMC
2026-04-30 19:58:47 Techno 5 7 Exoform_-_Consciousness-(GBR313)-SINGLE-WEB-2026-FMC
2026-04-30 19:58:15 Techno 5 10 Daniele_Mondello_-_WHEN_THE_BASS_DROPS_(Original_Mix)-SINGLE-WEB-2026-FMC
2026-04-30 19:57:53 Techno 6 21 Air_Teo_And_Emiliano_Effe_-_Bassline_Blx-(MER32604)-WEB-2026-FMC
2026-04-30 19:57:51 Hardcore 5 7 Bulletproof_-_In_My_Dreams-(PR262)-SINGLE-WEB-2026-FMC
2026-04-30 19:55:33 Dance 7 34 Sean_Norvis_and_EVVE_-_How_Free_She_Is-(NVS324)-WEB-2026-ZzZz
2026-04-30 19:43:38 Techno 5 11 Jordan_HC_-_Feel_The_Guitar-(DNZF2445)-SINGLE-WEB-2026-ZzZz
2026-04-30 19:34:53 Dance 6 29 Javi_Herrero_DJ_-_Hard_House_EP-(DNZF2448)-WEB-2026-ZzZz
2026-04-30 19:22:56 Dance 5 5 Alexandra_Stan_and_Faulhaber_-_No_Sleep-SINGLE-WEB-2026-ZzZz
2026-04-30 19:08:44 Trance 5 10 Modea_and_Bryan_Kearney_-_Ready_To_Fly-(0827568001849)-SINGLE-WEB-2026-ZzZz
2026-04-30 19:06:56 Techno 5 5 Riot_Shift_-_SCAR_SANCTUARY_(Edit)-SINGLE-WEB-2026-UTNG
2026-04-30 19:04:01 Techno 5 7 Brutalizer_-_Burned_Alive_(Edit)-SINGLE-WEB-2026-UTNG
2026-04-30 19:00:44 Trance 6 18 Myde_-_Enjoy_Yourself-(FS309)-WEB-2026-FMC
2026-04-30 19:00:43 Trance 6 24 Sunny_Lax_-_Endlessly-(ENPROG684E)-WEB-2026-FMC
2026-04-30 18:52:55 Trance 6 24 Matteo_Ferri_-_Altair-(WLT118)-WEB-2026-FMC
2026-04-30 18:51:48 Trance 7 45 Masaru_Hinaiji_-_Ours_(Elissandro_Remix)-(MELODY174)-WEB-2026-FMC
2026-04-30 18:51:06 Trance 6 24 Dimassive_-_Beyond_The_Sky-(TM300)-WEB-2026-FMC
2026-04-30 18:50:10 Techno 14 115 ZEEGA_-_Earthquake-(HYPE002)-WEB-2026-ZzZz
2026-04-30 18:47:20 Techno 5 9 Ysnake_-_Chaos-(4069493796797)-SINGLE-WEB-2025-ZzZz
2026-04-30 18:44:31 Techno 7 18 Yarimov_Luuna_and_Lieless_-_DELLA-(DB022)-WEB-2026-ZzZz
2026-04-30 18:39:38 Techno 5 10 Xkiller_-_Push_It-(RAG088)-SINGLE-WEB-2026-ZzZz
2026-04-30 18:14:43 Trance 6 23 YuraNN_And_Yuri_Melnikov_-_Warriors_Above-(PXM077)-WEB-2026-FMC
2026-04-30 18:14:22 Trance 6 21 Superstrings_-_NEON_DUSK_PROTOCOL-(ARMAS3709)-WEB-2026-FMC
2026-04-30 18:13:59 Trance 6 25 SkyRaid_UK_And_Tranceformerz_-_Who_We_Are-(NARR044)-WEB-2026-FMC
2026-04-30 18:13:36 Trance 6 17 Siimon_-_Becoming_One-(ASOT883)-WEB-2026-FMC
2026-04-30 18:13:17 Trance 6 19 Frank_Spector_-_Voulez_Vous-(ARMD1836)-WEB-2026-FMC
2026-04-30 18:05:15 Dance 5 11 Borey_-_Feel_Of_The_Night-(5026854871165)-SINGLE-WEB-2026-ZzZz
2026-04-30 17:58:10 Techno 8 33 Marc_Need_-_Obsession-(P2P247)-WEB-2026-ZzZz
2026-04-30 17:51:50 Dance hall 4 5 Toofan-Praise_The_Lord-SINGLE-WEB-2026-JAH
2026-04-30 17:47:06 Dance 6 14 HAUS_-_Can_You_Hear_It-(INR188)-WEB-2026-ZzZz
2026-04-30 17:38:50 Trance 6 18 Tony_Irrmani_With_Irina_M._-_Whispers_Of_The_East-(ABPR075)-WEB-2026-FMC
2026-04-30 17:38:24 Trance 6 23 Revolution_9_-_Celestial-(ASC094)-WEB-2026-FMC
2026-04-30 17:38:24 Trance 7 28 Mhammed_El_Alami_And_Cathy_Burton_-_Time_Gazing-(RNMR398)-WEB-2026-FMC
2026-04-30 17:38:02 Trance 6 19 ReOrder_And_Soulprism_-_Synthetic_Dawn-(REVERIE039)-WEB-2026-FMC
2026-04-30 17:37:07 Trance 5 9 HALIENE_-_Solar_Waves-(BH17420)-SINGLE-WEB-2026-FMC
2026-04-30 17:37:06 Trance 6 20 Embers_Of_Hope_And_Jo_Cartwright_-_All_The_Things_We_Leave_Behind-(RNMR400)-WEB-2026-FMC
2026-04-30 17:36:35 Trance 6 20 Elite_Electronic_And_Eternal_Flame_-_Elegy-(ITPG288)-WEB-2026-FMC
2026-04-30 17:35:50 Trance 6 26 Christian_Burns_-_Strangers_(Krismi_Remix)-(BH17490)-WEB-2026-FMC
2026-04-30 17:23:52 Trance 5 6 Roman_Messer_and_ThoBa_-_Listen_To_Your_Heart-(5054289862052)-SINGLE-WEB-2026-ZzZz
2026-04-30 17:05:30 Trance 7 28 Sunlounger_Ft._Zara_Taylor_X_Shugz_And_Cielll_-_Lost-(ARCV319)-WEB-2026-FMC
2026-04-30 17:04:51 Trance 6 20 Mhammed_El_Alami_And_HKL_And_Wavetraxx_-_Requiem_For_The_Lonely_Souls-(CD063)-WEB-2026-FMC
2026-04-30 17:04:50 Trance 6 24 Sasha_Vatoff_-_Take_Me_Up-(HVR231)-WEB-2026-FMC
2026-04-30 17:04:17 Trance 6 18 Giuseppe_Ottaviani_X_Andrew_Rayel_Ft._Alessia_Labate_-_How_Do_We_Know-(ARMAS3717)-WEB-2026-FMC
2026-04-30 17:02:43 Techno 7 38 Tinhead-Late_Night_Ride_EP-(BUNK118)-WEB-2026-BB
2026-04-30 17:02:05 Techno 5 12 Robert_Hood-Monkey-(MPMPM1852)-SINGLE-WEB-2026-BB
2026-04-30 16:49:26 Trance 6 28 Shockwaves_-_Sutra-(RDX694)-WEB-2026-FMC
2026-04-30 16:49:25 Trance 6 23 U-Mount_-_Frozen_Dreams-(EGMSIN504)-WEB-2026-FMC
2026-04-30 16:48:50 Trance 6 20 Sergey_Salekhov_-_Nebula-(SND504)-WEB-2026-FMC
2026-04-30 16:48:50 Trance 6 21 Sebastian_Brushwood_-_Walking_To_The_Sky-(ABL334)-WEB-2026-FMC
2026-04-30 16:48:21 Trance 6 23 Roger_Shah_And_Inoblivion_-_Midnight_Chase-(ELEVATE135)-WEB-2026-FMC
2026-04-30 16:47:59 Trance 6 25 REX.W_And_blurrrSAMA_-_Weightless_Cruising-(TRUE335)-WEB-2026-FMC
2026-04-30 16:47:59 Trance 6 17 DIM3NSION_X_StanV_-_Lacrimosa-(ASOT884)-WEB-2026-FMC
2026-04-30 16:47:40 Trance 6 23 ICARUS_PROJECT_-_Neural_Grip-(TT063)-WEB-2026-FMC
2026-04-30 16:47:01 Trance 6 21 Alex_Van_Gray_-_Awakening-(SCR729)-WEB-2026-FMC
2026-04-30 16:46:59 Trance 6 17 Bigtopo_And_JARR_Head_-_Ten_Minutes_Of_Life-(SND505)-WEB-2026-FMC
2026-04-30 16:46:13 Trance 8 55 Etasonic_-_Eden-(ABRD444)-WEB-2026-FMC
2026-04-30 16:46:13 Trance 6 25 Trance_Classics_-_Right_Back-(AMSTR640)-WEB-2026-FMC
2026-04-30 16:46:12 Trance 6 27 Andy_Kay_(CZ)_And_EMULE_-_Skybound-(ABL333)-WEB-2026-FMC
2026-04-30 16:16:39 Trance 6 24 Ryan_K_-_Special-(NK366)-WEB-2026-FMC
2026-04-30 16:15:51 Trance 6 22 Derek_Ryan_And_N-sKing_-_Nagisa_(ShoMa_Remix)-(AVAW412)-WEB-2026-FMC
2026-04-30 16:15:33 Trance 6 24 Daniel_Wanrooy_And_Lasada_-_Light_Me_Up-(BH17350)-WEB-2026-FMC
2026-04-30 15:35:44 Trance 6 22 SMR_LVE_And_That_Girl_-_Euphoria_(Trance_Reserve_Remix)-(SND497)-WEB-2026-FMC
2026-04-30 15:35:26 Trance 6 22 Ronski_Speed_And_DJ_T.H._Pres._Sun_Decade_And_Emily_Orchard_-_Wont_Forget_These_Days-(R2R174)-WEB-2026-FMC
2026-04-30 15:35:04 Trance 6 25 Paul_Boyle_-_Maya-(2RR329)-WEB-2026-FMC
2026-04-30 15:32:03 Trance 8 46 Risen-Back_to_You-(ASR1075)-WEB-2026-PTC
2026-04-30 15:06:10 Techno 8 275 Save_Your_Atoll_And_Konstantin_Kost-Disconnect_EP-DRLDEP012-24BIT-WEB-FLAC-2026-WAVED
2026-04-30 15:04:20 Techno 9 67 DIT_ZY_And_Klerr-9900_EP-RMWKDGTL019-WEB-2026-WAV
2026-04-30 15:02:22 Techno 9 307 DIT_ZY_And_Klerr-9900_EP-RMWKDGTL019-24BIT-WEB-FLAC-2026-WAVED
2026-04-30 14:53:43 Dance 5 63 Warriorz-Potrzebuje_Cudu-PL-16BIT-WEB-FLAC-2026-MARiBOR
2026-04-30 14:52:06 Dance 5 83 89ers_x_Rimini_Rockaz-Here_I_Go-(77172154KON)-24BIT-WEB-FLAC-2026-MARiBOR
2026-04-30 14:41:24 Dance 5 10 LarJ_-_Are_We_Dreaming-(DNZF2439)-SINGLE-WEB-2026-ZzZz
2026-04-30 14:10:52 Dance 7 88 Girls_Only-The_Fate_Of_Ophelia-(LNGS3539)-16BIT-WEB-FLAC-2026-MARiBOR
2026-04-30 14:10:34 Dance 7 26 Girls_Only-The_Fate_Of_Ophelia-(LNGS3539)-WEB-2026-MARiBOR
2026-04-30 14:10:17 Techno 9 60 Any_Mello-Esperanca_EP-NRBK015-REPACK-WEB-2026-WAV
2026-04-30 14:08:04 Dance 6 12 R3SPAWN_and_Josh_Le_Tissier_and_The_Sax_Brothers_-_Careless_Whisper-(8718522588969)-WEB-2026-ZzZz
2026-04-30 14:07:41 Techno 8 321 Any_Mello-Esperanca_EP-(NRBK015)-24BIT-WEB-FLAC-2026-PTC
2026-04-30 13:59:33 Dance 6 21 Indecent_Noise_and_onTune_-_Finish_Him-(8718525396141)-WEB-2026-ZzZz
2026-04-30 13:54:02 Techno 9 60 Any_Mello-Esperanca_EP-NRBK011-WEB-2026-WAV
2026-04-30 13:51:20 Dance 5 6 Dr_Eurodance_-_Summer_For_You-(3618029714678)-SINGLE-WEB-2026-ZzZz
2026-04-30 13:51:20 Techno 5 13 Cri_Du_Coeur-Hamtrack-TPTONE09-SINGLE-WEB-2026-WAV
2026-04-30 13:50:19 Dance 6 15 Klaas_-_You_Went_Ghost-(4062851279093)-WEB-2026-ZzZz
2026-04-30 13:47:36 Techno 5 34 Cri_Du_Coeur-Hamtrack-TPTONE09-SINGLE-16BIT-WEB-FLAC-2026-WAVED
2026-04-30 13:36:22 Dance 5 7 Marc-BaZZ_-_Girl_Im_gonna_miss_you-(825393302926)-SINGLE-WEB-2026-ZzZz
2026-04-30 13:28:09 Dance 5 4 Maud_x_Robbe_x_Milan_Gavris_x_Jack_Mence_-_Hung_Up-(5054289829451)-SINGLE-WEB-2026-ZzZz
2026-04-30 13:26:11 Trance 5 70 Cadeya-Inner_Light-(TZR20265)-16BIT-WEB-FLAC-2026-MARiBOR
2026-04-30 13:26:10 Trance 5 83 Cosmic_Culture_x_DJ_Dean-Solar_Nova-(MMRD2108)-24BIT-WEB-FLAC-2026-MARiBOR
2026-04-30 13:26:08 Dance 5 61 CryptoZ_x_Meren_Music-Lone_Warrior-(10359113)-16BIT-WEB-FLAC-2026-MARiBOR
2026-04-30 13:26:05 Dance 5 45 Mashmex_x_Rocco_x_Stereo_Amp_Surfer-Go-(YLD707)-24BIT-WEB-FLAC-2026-MARiBOR
2026-04-30 13:25:50 Techno 5 56 Krynex_x_DrumMasterz-Haende_In_Die_Luft-(10363983)-DE-16BIT-WEB-FLAC-2026-MARiBOR
2026-04-30 13:25:47 Trance 5 104 Myde-Enjoy_Yourself-(FS309)-24BIT-WEB-FLAC-2026-MARiBOR
2026-04-30 13:25:46 Dance 11 261 Slasherz-The_Remix_EP-(MMRD2109)-16BIT-WEB-FLAC-2026-MARiBOR
2026-04-30 13:25:45 Dance 5 84 Master_Blaster-Scandi_Queen_(Double_D)-(YLD722)-24BIT-WEB-FLAC-2026-MARiBOR
2026-04-30 13:25:43 Dance 10 71 SolidShark-Club_Is_Closed-WEB-2026-MARiBOR
2026-04-30 13:25:42 Techno 5 16 Rein_(NL)-Meet_her_at_the_Warehouse-(LTU94)-SINGLE-WEB-2026-PTC
2026-04-30 13:25:42 Dance 5 53 Nicky_Sun-Dimension-(DB221)-16BIT-WEB-FLAC-2026-MARiBOR
2026-04-30 13:25:41 Dance 4 40 SPLT_SCND-Fake_It-(MMRD2107)-SINGLE-24BIT-WEB-FLAC-2026-MARiBOR
2026-04-30 13:25:15 Dance 10 388 SolidShark-Club_Is_Closed-24BIT-WEB-FLAC-2026-MARiBOR
2026-04-30 13:25:10 Dance 5 126 SolidShark-Chicago_Scream_Loud-24BIT-WEB-FLAC-2026-MARiBOR
2026-04-30 13:25:07 Techno 5 12 Rafael_de_la_King-No_Way_Back-(DRE690)-SINGLE-WEB-2026-PTC
2026-04-30 13:24:54 Techno 5 14 Maaty-Xtc-(AES171)-SINGLE-WEB-2026-PTC
2026-04-30 13:24:42 Dance 5 56 Wavepuntche-My_Weekend_(E-Hunterz_Remix)-(10363500)-16BIT-WEB-FLAC-2026-MARiBOR
2026-04-30 13:24:41 Techno 5 17 Emanuele_Marini-Hathor-(BB816)-SINGLE-WEB-2026-PTC
2026-04-30 13:24:40 Dance 5 21 SolidShark-Falling_Into_You-WEB-2026-MARiBOR
2026-04-30 13:24:23 Dance 7 118 Stoy1tek_x_DJane_SuperSynth-Never_Back_Down-(10363603)-16BIT-WEB-FLAC-2026-MARiBOR
2026-04-30 13:24:21 Techno 5 16 Amymi_Musica-Confusion-(BB844)-SINGLE-WEB-2026-PTC
2026-04-30 13:24:13 Dance 5 118 SolidShark-Falling_Into_You-24BIT-WEB-FLAC-2026-MARiBOR
2026-04-30 13:23:39 Dance 5 18 Wavepuntche-My_Weekend_(E-Hunterz_Remix)-(10363500)-WEB-2026-MARiBOR
2026-04-30 13:20:52 Dance 5 68 DJ_T.H._x_Jarviis_x_Jake_x_Amara-Shy-(NK365)-REPACK-16BIT-WEB-FLAC-2026-MARiBOR
2026-04-30 13:20:50 Trance 5 24 Andy_Judge-Holding_On-(FS301)-WEB-2026-MARiBOR
2026-04-30 13:19:59 Techno 10 218 Decka-When_Time_Stopped-SEMANTICA198-16BIT-WEB-FLAC-2026-WAVED
2026-04-30 13:19:53 Trance 5 139 Andy_Judge-Holding_On-(FS301)-24BIT-WEB-FLAC-2026-MARiBOR
2026-04-30 13:19:28 Techno 10 74 Decka-When_Time_Stopped-SEMANTICA198-WEB-2026-WAV
2026-04-30 13:10:39 Dance 5 6 Ramses_and_DJ_MNS_-_Self_Control-(5063992000255)-SINGLE-WEB-2026-ZzZz
2026-04-30 13:02:28 Dance 5 4 Crystal_Rock_x_Slenderino_x_DJ_Olde_x_Timr_-_Demons-(0820233126403)-SINGLE-WEB-2026-ZzZz
2026-04-30 12:29:29 Dance 6 19 Bassjackers_-_GO_MF_GO-(8718521106515)-WEB-2026-ZzZz
2026-04-30 12:16:06 Trance 6 127 Menog-Tune_In-TIPR2026065-16BIT-WEB-FLAC-2026-WAVED
2026-04-30 12:13:54 Dance 5 5 Lawstylez_x_Ryan_Thistlebeck_x_WhiteCapMusic_x_SCNB_-_Behind_Blue_Eyes-(5063959541937)-SINGLE-WEB-2026-ZzZz
2026-04-30 12:12:56 Techno 5 17 Kaori_Watt-Surrender-(REB094)-SINGLE-WEB-2026-PTC
2026-04-30 12:12:03 Techno 5 12 Camilo_Malatini-Down_To_Night-(RR645)-SINGLE-WEB-2026-PTC
2026-04-30 11:54:09 Techno 8 280 VA-Hidden_Cornerns-BST030-24BIT-WEB-FLAC-2026-WAVED
2026-04-30 11:51:20 Trance 5 31 The_Trancemancer-Timeline-(0652733033215)-WEB-2026-FALCON
2026-04-30 11:50:46 Trance 4 18 Subverso_And_Twelve_Sessions-The_Forgotten_One-(EXP265)-SINGLE-WEB-2026-FALCON
2026-04-30 11:50:11 Trance 6 35 Noedo-Selective_Awareness-(DCREP486)-WEB-2026-FALCON
2026-04-30 11:49:51 Trance 12 143 Future_Prophecy-Sirocco-(01052026)-WEB-2026-FALCON_INT
2026-04-30 11:49:14 Trance 4 16 Doubkore_And_Mahaya-Dimensions-(DOPDIGI461)-SINGLE-WEB-2026-FALCON
2026-04-30 11:49:13 Dance 6 15 Marc_Korn_x_Semitoo_-_Back_When_You_Were_17-(4062851280112)-WEB-2026-ZzZz
2026-04-30 11:48:51 Trance 4 17 Beat_Herren-Afterimage-(FWR12)-SINGLE-WEB-2026-FALCON
2026-04-30 11:48:49 Trance 4 15 Atmos-Two_Pole_Taurus_Different_Planet_Mix-(IBOGADIGITAL1033)-SINGLE-WEB-2026-FALCON
2026-04-30 11:46:57 Trance 4 15 Altered_State-True_Nature-(INM1DIGI986)-SINGLE-WEB-2026-FALCON
2026-04-30 11:46:40 Techno 8 199 Mossed-Fortec_EP-BCE066-24BIT-WEB-FLAC-2026-WAVED
2026-04-30 11:41:28 Dance 5 15 DJ_Louis_And_Sweetpower_-_Billie_Jean-WEB-2026-FCKW
2026-04-30 11:38:47 Dance 6 15 Master_Blaster_-_Scandi_Queen_(Double_D)-(YLD722)-WEB-2026-ZzZz
2026-04-30 11:35:19 Techno 8 242 VA-RAUM_VA_002-RAUM005-24BIT-WEB-FLAC-2026-WAVED
2026-04-30 11:32:25 Techno 5 86 Pfirter-The_Dub_Track_2026-MT106-SINGLE-24BIT-WEB-FLAC-2026-WAVED
2026-04-30 11:31:31 Dance 6 14 Mashmex_x_Rocco_x_Stereo_Amp_Surfer_-_GO-(YLD707)-WEB-2026-ZzZz
2026-04-30 11:28:25 Techno 7 99 Jody_6-Cognitive_Shift-(DCLTD45)-16BIT-WEB-FLAC-2026-PTC
2026-04-30 11:26:27 Dance 5 18 CryptoZ_x_Meren_Music-Lone_Warrior-(10359113)-WEB-2026-MARiBOR
2026-04-30 11:25:38 Techno 8 318 Architectural-Liminal_Dancery-DSRC27-24BIT-WEB-FLAC-2026-WAVED
2026-04-30 11:23:20 Techno 11 102 Stigmatique-1000_Backups-(DRSS1407)-WEB-2026-PTC
2026-04-30 11:23:19 Dance 6 15 Nicky_Sun_-_Dimension-(4040217030038)-WEB-2026-ZzZz
2026-04-30 11:20:54 Techno 5 15 Krynex_x_DrumMasterz-Haende_In_Die_Luft-(10363983)-WEB-DE-2026-MARiBOR
2026-04-30 11:20:32 Techno 8 43 EDC-EDC1-(TRULE033)-WEB-2026-PTC
2026-04-30 11:20:02 Techno 7 44 Dreum-Relentless_Impact-(EYD065)-WEB-2026-PTC
2026-04-30 11:19:47 Techno 7 40 Boyca-Hornysha-(IS012)-WEB-2026-PTC
2026-04-30 11:19:28 Techno 8 232 Vedik-Sketch_EP-TREATD13-24BIT-WEB-FLAC-2026-WAVED
2026-04-30 11:19:26 Techno 6 19 AXBLA-Gravity-(ECLR556)-WEB-2026-PTC
2026-04-30 11:18:46 Dance 4 5 Hard_Harder_Harrer_X-Zac-White_X_Audeption_-_Schuetzenfest-SINGLE-WEB-2026-FCKW
2026-04-30 11:18:45 Dance 5 7 SPLT_SCND_-_Fake_It-(MMRD2107)-SINGLE-WEB-2026-ZzZz
2026-04-30 11:18:22 Techno 8 156 James_Cherry-Ancient_Aftermath-MOD096-16BIT-WEB-FLAC-2026-WAVED
2026-04-30 11:16:59 Goa 12 143 VA_-_Fill_Your_Head_With_Phantasm_Vol._6-2000-gEm_INT
2026-04-30 11:16:40 Dance 5 13 89ers_Rimini_Rockaz_-_Here_I_Go-WEB-2026-FCKW
2026-04-30 11:15:21 Trance 6 15 Cosmic_Culture_x_DJ_Dean_-_Solar_Nova-(MMRD2108)-WEB-2026-ZzZz
2026-04-30 11:13:18 Dance 5 47 DJ_THT_x_Empyre_One-Over_You-(GAZ494)-16BIT-WEB-FLAC-2026-MARiBOR
2026-04-30 11:13:15 Dance 5 20 Warriorz-Potrzebuje_Cudu-WEB-PL-2026-MARiBOR
2026-04-30 11:12:42 Dance 5 14 DJ_THT_x_Empyre_One-Over_You-(GAZ494)-WEB-2026-MARiBOR
2026-04-30 11:12:22 Dance 7 37 Stoy1tek_x_DJane_SuperSynth-Never_Back_Down-(10363603)-WEB-2026-MARiBOR
2026-04-30 11:09:58 Techno 7 128 VA-Traumatismo_42-(TRMT42)-16BIT-WEB-FLAC-2026-PTC
2026-04-30 11:09:00 Dance 12 76 Slasherz_-_The_Remix_EP_(Incl_A_Neverending_Dream__Paradise)-(MMRD2109)-WEB-2026-ZzZz
2026-04-30 11:07:43 Techno 8 154 Mesh_Convergence-Never_Ask_Why-(RM27)-16BIT-WEB-FLAC-2026-PTC
2026-04-30 11:06:03 Dance 11 76 Slasherz-The_Remix_EP-(MMRD2109)-WEB-2026-MARiBOR
2026-04-30 10:59:55 Techno 8 50 Mesh_Convergence-Never_Ask_Why-(RM27)-WEB-2026-PTC
2026-04-30 10:57:45 Techno 8 140 WAVESMAN-Polar_Wolf-(DOSIS044)-16BIT-WEB-FLAC-2026-PTC
2026-04-30 10:55:01 Techno 8 53 WAVESMAN-Polar_Wolf-(DOSIS044)-WEB-2026-PTC
2026-04-30 10:53:38 Techno 8 173 Architectural-Liminal_Dancery-(DSRC27)-16BIT-WEB-FLAC-2026-PTC
2026-04-30 10:51:24 Techno 9 187 VIMINOR-The_Manipulator-(INCENSE039)-16BIT-WEB-FLAC-2026-PTC
2026-04-30 10:47:16 Techno 10 175 Dynamic_Forces-Metal_Space-(DOLLYTS15BP)-16BIT-WEB-FLAC-2026-PTC
2026-04-30 10:43:06 Techno 9 63 VIMINOR-The_Manipulator-(INCENSE039)-WEB-2026-PTC
2026-04-30 10:43:04 Techno 13 111 VA-Unity_Vol.39_Compilation-(UNI39C)-WEB-2026-PTC
2026-04-30 10:42:11 Techno 7 44 VA-Traumatismo_42-(TRMT42)-WEB-2026-PTC
2026-04-30 10:42:08 Techno 8 53 VA-RAUM_VA_002-(RAUM005)-WEB-2026-PTC
2026-04-30 10:41:44 Techno 7 42 Bjoern_Ohler-Sound_from_the_Underground-(SKR077)-WEB-2026-PTC
2026-04-30 10:35:34 Techno 6 33 Joseph_S_Joyce-Phase_Mist-(DEFP026)-WEB-2026-PTC
2026-04-30 10:31:48 Techno 8 48 Fabio_Piletto_and_Angelo_Raguso-Voltage_Collapse-(RAW260501)-WEB-2026-PTC
2026-04-30 10:24:58 Techno 7 45 Kurir_and_This_Isnt_Techno-I_Am_Hope-(RRS0006)-WEB-2026-PTC
2026-04-30 10:24:57 Techno 8 57 VA-Hidden_Cornerns-(BST030)-WEB-2026-PTC
2026-04-30 10:22:30 Techno 5 16 Pfirter-The_Dub_Track_(2026)-(MT106)-SINGLE-WEB-2026-PTC
2026-04-30 10:21:53 Techno 8 51 James_Cherry-Ancient_Aftermath-(MOD096)-WEB-2026-PTC
2026-04-30 10:21:12 Techno 6 31 Giovanni_Pasquariello-Sketch-(CNLD243)-WEB-2026-PTC
2026-04-30 10:13:08 Techno 8 44 Spatial_Awareness-Machinery-(KP250)-WEB-2026-PTC
2026-04-30 10:13:06 Techno 11 76 Lizoto-Conversation_EP-(ISDIGI009)-WEB-2026-PTC
2026-04-30 10:13:06 Techno 8 56 Binary_Algorithms-Flow_State_EP-(FTAEP10)-WEB-2026-PTC
2026-04-30 10:12:43 Techno 6 30 Dardi-Silicon_Side_Stick-(TGNR234)-WEB-2026-PTC
2026-04-30 10:08:35 Dance 5 9 frankie_klassic_-_Earn_To_Fly_(version_club)-(EIBIZA1771990)-SINGLE-WEB-2026-ZzZz
2026-04-30 10:05:48 Techno 6 29 Danny_Sbert-Check_It_Out-(HSR018)-WEB-2026-PTC
2026-04-30 10:04:35 Techno 9 69 Axion_(UK)-Imola-(AFR072)-WEB-2026-PTC
2026-04-30 10:04:35 Techno 8 56 Alex_Micca_and_Sole_Llorente-Lost_in_Time_EP-(IBOGATECH280)-WEB-2026-PTC
2026-04-30 10:04:15 Techno 8 66 Architectural-Liminal_Dancery-(DSRC27)-WEB-2026-PTC
2026-04-30 09:53:24 Techno 8 64 Steve_Bicknell-Basic_Questions-(SBP023)-WEB-2026-PTC
2026-04-30 09:53:21 Techno 7 38 Mattia_L-Techno_Clock-(RB093)-WEB-2026-PTC
2026-04-30 09:53:02 Techno 7 34 JCK-No_Turning_Back_EP-(NUCLEON067)-WEB-2026-PTC
2026-04-30 09:42:03 Techno 8 46 Vedik-Sketch_EP-(TREATD13)-WEB-2026-PTC
2026-04-30 09:42:02 Techno 7 32 Pulse.ar-Never_the_Same-(GIL024)-WEB-2026-PTC
2026-04-30 09:41:22 Techno 9 72 Rove-Vision_EP-(ELEP008)-WEB-2026-PTC
2026-04-30 09:40:58 Techno 8 46 DJ_Dextro-Tantooine-(IARLTDT021)-WEB-2026-PTC_INT
2026-04-30 09:40:57 Techno 10 65 Dynamic_Forces-Metal_Space-(DOLLYTS15BP)-WEB-2026-PTC
2026-04-30 09:40:57 Techno 10 68 Earwax_(IT)-Change_Setting_EP-(KAZERNE025)-WEB-2026-PTC
2026-04-30 09:40:25 Trance 5 9 Sound_Dezign-The_Only_Way-(NLR0024)-SINGLE-WEB-2026-FALCON
2026-04-30 09:39:52 Trance 6 27 Shadow_Monkey-Freak_Show_Pete.M_Remix-(MCA004DJ)-WEB-2026-FALCON
2026-04-30 09:39:16 Trance 6 25 Magnetti_And_JARR_Head-No_Limits-(PVM1250D)-WEB-2026-FALCON
2026-04-30 09:38:41 Trance 5 13 Dreamy_And_Hoenir_V-A_Journey_To_Remember-(CSR005)-SINGLE-WEB-2026-FALCON
2026-04-30 09:38:08 Trance 5 14 DJ_Overlead-The_Childs_Gaze-(10362805)-SINGLE-WEB-2026-FALCON
2026-04-30 09:37:33 Trance 4 9 DJ_Nostra-The_Piano_Dream-(10361946)-SINGLE-WEB-2026-FALCON
2026-04-30 09:37:05 Trance 9 79 Close_Proximity-House_Of_Hades_EP-(B4U016)-WEB-2026-FALCON
2026-04-30 09:36:11 Trance 5 16 Blue_Sector-Together_On_This_Journey-(LRLTRC101)-SINGLE-WEB-2026-FALCON
2026-04-30 09:35:42 Trance 7 45 Astraelith_And_Outcast_St13-My_Walls-(YCR113)-WEB-2026-FALCON
2026-04-30 08:34:15 Trance 5 13 Tropicalia-Consciencia_Do_Amor-(1DB360)-SINGLE-WEB-2026-FALCON
2026-04-30 08:33:15 Trance 4 14 Telematica-Mind_Secrets-(FBR0013)-SINGLE-WEB-2026-FALCON
2026-04-30 08:32:43 Trance 5 17 Ekinopsis-Ufo_Presence-(RIZEP068)-SINGLE-WEB-2026-FALCON
2026-04-30 08:32:42 Trance 5 18 Paradox_Side-Jump_And_Harmony-(SD0087)-SINGLE-WEB-2026-FALCON
2026-04-30 08:32:31 Psychedelic 5 18 Gamawave-Brainwaves-(EPIQ026)-SINGLE-WEB-2026-FALCON
2026-04-30 08:31:25 Trance 5 19 Dorukpsy-Keep_It_Up-(TLR0085)-SINGLE-WEB-2026-FALCON
2026-04-30 08:31:01 Trance 5 13 Atopia-Electronic_Maze-(BTRDR1590)-SINGLE-WEB-2026-FALCON
2026-04-30 08:29:44 Dance 4 6 Andy_Ztoned_and_Lexxxi_-_Lexxxi_Back_in_the_House-(4070169627277)-SINGLE-WEB-2026-ZzZz
2026-04-30 08:28:27 Dance 8 33 Martin_Jaxxxer_-_Hey_Jude-(9361385252615)-WEB-2026-ZzZz
2026-04-30 08:26:22 Trance 5 12 EchoVerse_Asia_-_Rise_Through_The_Rhythm-(MR0451)-SINGLE-WEB-2026-ZzZz
2026-04-30 08:23:06 Dance 7 21 JCH_UP_feat_FehlTon_-_Rave_Dance_Drink-(JU102)-WEB-2026-ZzZz
2026-04-30 08:21:24 Dance 5 18 KronmDJ_-_Running_To_You-(CAT1747806)-SINGLE-WEB-2026-ZzZz
2026-04-30 08:20:15 Dance 5 17 KronmDJ_-_Im_dying_to-(CAT1747791)-SINGLE-WEB-2026-ZzZz
2026-04-30 08:18:47 Techno 8 184 Alessio_Landini_And_Ectoplasm-SYXT041-24BIT-WEB-FLAC-2026-WAVED
2026-04-30 08:15:20 Dance 7 26 Attraction_-_United-(DIG161421E)-WEB-2026-ZzZz
2026-04-30 07:45:36 Trance 14 135 VA_-_Beatport_Quinny_-_April_Chart-WEB-2026
2026-04-30 07:40:42 Techno 5 7 SL_Complex_-_Remedy-(TCLABSPRO193)-SINGLE-WEB-2026-FMC
2026-04-30 07:40:17 Techno 5 9 Matzic_And_BLCKLIST_-_The_Drum-(BBD203)-SINGLE-WEB-2026-FMC
2026-04-30 07:39:59 Techno 5 8 Krowdexx_And_Holy_Priest_-_Freestyler-(FXCK0028E)-SINGLE-WEB-2026-FMC
2026-04-30 07:39:19 Techno 5 7 Ephoric_-_Meant_2_Be-(MH071E)-SINGLE-WEB-2026-FMC
2026-04-30 07:38:49 Techno 5 7 Coldax_And_Disaster_-_Nitro-(CR061)-SINGLE-WEB-2026-FMC
2026-04-30 07:13:49 Hardcore 5 7 Rob_Gee_and_Coda_-_Tonight_Tonight_(Extended_Mix)-(GTM057D)-WEB-2025
2026-04-30 07:13:29 Hardcore 5 9 Leyxa_and_The_Unfamous_-_Walk_Away-(OFF079)-WEB-2025
2026-04-30 07:11:35 Psychedelic 18 779 VA-Oraculum-(TSANGEP116)-16BIT-WEB-FLAC-2026-FALCON
2026-04-30 07:11:13 Trance 14 489 VA-Deviant_Sangoma-(TSANGEP118)-16BIT-WEB-FLAC-2026-FALCON
2026-04-30 07:09:24 Trance 13 530 Ancient_Alliance-Call_Of_The_Ancients-(TSANGEP115)-16BIT-WEB-FLAC-2026-FALCON
2026-04-30 07:07:20 Trance 45 594 VA_-_Beatport_Weekend_Picks_2026_Trance_Week_17-WEB-2026
2026-04-30 06:56:29 Techno 5 8 Regenesis_-_Punishment-(EVAU005E)-SINGLE-WEB-2026-FMC
2026-04-30 06:55:00 Techno 5 9 RE-PULZE_-_Around_The_World-(INNER036PRO)-SINGLE-WEB-2026-FMC
2026-04-30 06:54:59 Techno 5 5 Mutilator_-_Domination-(GBD549)-SINGLE-WEB-2026-FMC
2026-04-30 06:51:20 Techno 23 233 VA_-_Beatport_The_Melodic_House_and_Techno_Shortlist_-_April-WEB-2026
2026-04-30 06:47:08 Dance 36 426 VA_-_Beatport_The_Indie_Dance_Shortlist_-_April-WEB-2026
2026-04-30 06:47:05 Techno 5 16 Thyron_-_The_Journey_(Full_Mix)-(SCAN699D)-SINGLE-WEB-2026-FMC
2026-04-30 06:46:42 Techno 5 7 Sanctuary_And_Chapter_V_-_Sunset_Memories-(DQ063PRO)-SINGLE-WEB-2026-FMC
2026-04-30 06:46:42 Techno 5 6 Revelation_-_OLDSCHOOL-(ACR100)-SINGLE-WEB-2026-FMC
2026-04-30 06:46:41 Techno 5 10 Solstice_Feat_Michael_Jo_-_Dont_Say_Goodbye-(DWX2123)-SINGLE-WEB-2026-FMC
2026-04-30 06:46:06 Hardcore 5 8 Ricardo_Moreno_And_Korsakoff_-_Garden_Of_Bass-(MOHDIGI577)-SINGLE-WEB-2026-FMC
2026-04-30 06:45:53 Dance 15 153 VA_-_Beatport_Moat_(Uk)_-_Hype_Is_Not_April_Chart-WEB-2026
2026-04-30 06:45:22 Techno 5 6 Pat_B_And_High_Resistance_-_Jumpers_In_The_Place-(HU2DZ136)-SINGLE-WEB-2026-FMC
2026-04-30 06:44:57 Techno 5 7 Cryex_And_Omnya_-_MAGGOTS-(EOL301)-SINGLE-WEB-2026-FMC
2026-04-30 06:21:38 Trance 7 29 Pulsedriver_-_Your_Spirit_Is_Shining-CDM-2000-HS
2026-04-30 03:43:44 Dance 16 173 VA_-_Beatport_Mehen_-_002_Chart-WEB-2026
2026-04-30 03:42:58 Dance 17 169 VA_-_Beatport_Jonas_Dufrasne_-_I_Give_It_To_You_Chart-WEB-2026
2026-04-30 03:42:13 Dance 14 106 VA_-_Beatport_Kyparis_-_April_Top_10_Chart-WEB-2026
2026-04-30 03:41:44 Dance 14 144 VA_-_Beatport_Adam_Port_-_The1_Chart-WEB-2026
2026-04-30 03:41:08 Dance 17 173 VA_-_Beatport_Alejandro_Molinari_-_RavesiaIndie_Dance_Chart-WEB-2026
2026-04-30 03:40:33 Dance 16 166 VA_-_Beatport_Alex_Mitsenko_-__Chart-WEB-2026
2026-04-30 03:39:31 Trance 5 52 F4T4L3RR0R_and_Anton_Trian-Gemini-(ASR1059)-SINGLE-WEB_FLAC-2026-SCMT_INT
2026-04-30 03:36:17 Trance 28 351 VA_-_Beatport_Danny_Grunow_-_Electronic_Impressions_963-WEB-2026
2026-04-30 03:32:00 Trance 18 248 VA_-_Beatport_Ace_Ventura_-_15_Encounters_Chart-WEB-2026
2026-04-30 03:27:46 Trance 6 76 Thomma-Fading_Out-(3305007)-16BIT-WEB-FLAC-2026-TT
2026-04-30 03:24:24 Trance 5 40 Synthaurion-Echos_Of_Your_Blessing-(859734002831)-16BIT-WEB-FLAC-2026-TT
2026-04-30 03:21:06 Trance 6 79 REX.W-May_The_Peace_Be_With_Us-(SCR720)-16BIT-WEB-FLAC-2026-TT
2026-04-30 03:16:51 Trance 5 51 Dean_Feeney-With_You-(3304794)-16BIT-WEB-FLAC-2026-TT
2026-04-30 03:13:05 Trance 5 33 Cole_Twains-Here_I_Am-(821275608261)-16BiT-WEB-FLAC-2026-L4L
2026-04-30 03:09:35 Trance 8 154 ALEKSARD-Euphoria_Dreams_(Harmonic_Wave_Remix)-(NSM460)-16BIT-WEB-FLAC-2026-TT
2026-04-30 03:06:29 Trance 7 130 Reminiscence_and_Stacey_Jay-Poison_Ivy-(RT002)-WEB_FLAC-2026-SCMT
2026-04-30 03:02:40 Trance 7 206 Polyplex-The_Solar_System-(SPIT429)-WEB_FLAC-2026-SCMT_INT
2026-04-30 02:58:52 Trance 7 99 Lange_feat._Skye-Drifting_Away_(Dan_Harrison_Remix)-(WAO138448)-WEB_FLAC-2026-SCMT
2026-04-30 02:54:59 Trance 6 91 Kritical_Hit-Core_Division-(3316406)-WEB_FLAC-2026-SCMT
2026-04-30 02:51:30 Trance 5 28 Grace_(DE)-Whats_Going_On-(BTRDR1579)-SINGLE-WEB_FLAC-2026-SCMT_INT
2026-04-30 02:48:45 Techno 35 408 VA_-_Beatport_Rangel_Coelho_-_Tsunami_Chart-WEB-2026
2026-04-30 02:44:10 Techno 15 147 VA_-_Beatport_Gemels_-_Mar-Apr_Chart-WEB-2026
2026-04-30 02:41:34 Techno 14 117 VA_-_Beatport_Max_Noesen_-_Der_Schrei_EP_Release_Chart-WEB-2026
2026-04-30 02:38:19 Techno 18 187 VA_-_Beatport_Matto_Groove_-_Spicy_Grooves_Vol_1_Chart-WEB-2026
2026-04-30 02:34:35 Techno 14 105 VA_-_Beatport_Enveak_-_Kurai_Tabi_(Ep)_Chart-WEB-2026
2026-04-30 02:30:58 Techno 14 125 VA_-_Beatport_Elbio_and_Denis_-_Make_Your_Move_Chart-WEB-2026
2026-04-30 02:26:57 Techno 51 606 VA_-_Beatport_Exclusives_Only_Week_18-WEB-2026
2026-04-30 02:21:59 Hardstyle 6 53 Adventum_-_Voices_Of_The_Dark-(DVNT099)-WEB-FLAC-2026
2026-04-30 02:21:34 Hardcore 5 35 Hard_SL_-_You_Cant_Kill_Me-(HYPED017)-WEB-FLAC-2026
2026-04-30 02:21:06 Hardcore 5 8 JVZO_-_Miss_You-(BNR063)-WEB-2026
2026-04-30 02:20:43 Hardcore 5 10 X.Killer_-_Push_It-(RAG088)-WEB-2026
2026-04-30 02:19:12 Hardcore 8 124 Stormtrooper_-_Still_A_Little_Psycho-(ISRD245)-WEB-FLAC-2026
2026-04-30 02:18:43 Hardstyle 5 7 Skinwalker_and_Re-Vane_-_Chasin_The_Sun-(UHR061)-WEB-2026
2026-04-30 02:18:22 Hardcore 5 12 Wildwest_and_Wadez_and_Wildwadez_-_We_Are_Free_(KVN_Remix)-(PR259)-WEB-2026
2026-04-30 02:17:50 Hardcore 5 7 Matt_Envy_and_Frooty_-_Pillz-WEB-2026
2026-04-30 02:17:23 Hardcore 5 22 Terrorclown_-_Lost_In_Space-(TCTC027)-WEB-FLAC-2026
2026-04-30 02:17:06 Hardcore 5 6 Releaser_-_The_Feeling-(BNR062)-WEB-2026
2026-04-30 02:16:40 Hardcore 6 49 Mr._Bassmeister_-_Dont_Worry_About_Me-(PM120)-WEB-FLAC-2026
2026-04-30 02:16:10 Hardcore 14 82 DOrt_-_An_Artisans_Exhibition-(BYM478D)-WEB-2026
2026-04-30 02:14:57 Hardstyle 6 56 Alexair_-_Not_Yours_Anymore-(MBP172)-WEB-FLAC-2026
2026-04-30 02:14:32 Hardstyle 11 54 VA_-_DediKted_The_Requiem_(Extended_Mix)-(K1R363)-WEB-2026
2026-04-30 02:13:57 Hardcore 5 11 Frenchcore_Familia_-_Chaos_(Extended_Mix)-(FWWSGL82D)-WEB-2026
2026-04-30 02:13:16 Hardcore 5 7 Nobody_-_Step_On_(Edit)-(JH409)-WEB-2026
2026-04-30 02:11:48 Hardcore 4 108 Mysteryland_1994-Various_Artists_Live_(Thunderdome_Area)-TAPE-06-25-1994-CiN_INT
2026-04-29 23:13:36 Techno 10 81 Scotia-Take_Release-(BK052)-WEB-2026-PTC
2026-04-29 22:25:28 Techno 9 203 Dawn_Razor_and_Hatewax-Ston-(COM046)-16BIT-WEB-FLAC-2026-PTC
2026-04-29 22:23:20 Techno 8 151 Dangelo(Arg)-Anomaly-(EDITSELECT254D)-16BIT-WEB-FLAC-2026-PTC
2026-04-29 22:21:34 Techno 9 64 Dawn_Razor_and_Hatewax-Ston-(COM046)-WEB-2026-PTC
2026-04-29 22:21:02 Techno 8 46 Dangelo(Arg)-Anomaly-(EDITSELECT254D)-WEB-2026-PTC
2026-04-29 22:20:31 Techno 10 79 Anunnakis-Lunar-(NATBLACK556)-WEB-2026-PTC
2026-04-29 21:50:58 Techno 12 104 VA-Technostep_Vol._04-(WWR360)-WEB-2025-FALCON
2026-04-29 21:50:27 Techno 12 110 VA-Technostep_Vol._03-(WWR356)-WEB-2025-FALCON
2026-04-29 21:50:18 Techno 13 115 VA-Hard_Techno_And_Schranz_Vol._07-(WWR388)-WEB-2026-FALCON
2026-04-29 21:49:49 Techno 12 100 VA-Hard_Techno_And_Schranz_Vol._06-(WWR382)-WEB-2026-FALCON
2026-04-29 21:49:14 Techno 12 101 VA-Hard_Techno_And_Schranz_Vol._05-(WWR372)-WEB-2025-FALCON
2026-04-29 21:48:40 Techno 12 106 VA-Hard_Techno_And_Schranz_Vol._04-(WWR358)-WEB-2025-FALCON
2026-04-29 21:47:41 Techno 6 26 2CROW-The_Four_Horsemen-(WWR387)-WEB-2026-FALCON
2026-04-29 21:47:08 Techno 6 26 2CROW-Spiritual_War-(WWR386)-WEB-2026-FALCON
2026-04-29 21:46:36 Techno 5 13 2CROW-Pablo-(WWR381)-SINGLE-WEB-2025-FALCON
2026-04-29 21:46:03 Techno 6 27 2CROW-Halleluyah-(WWR371)-WEB-2025-FALCON
2026-04-29 21:17:45 Trance 14 165 VA-Deviant_Sangoma-(TSANGEP118)-WEB-2026-FALCON
2026-04-29 21:16:58 Trance 4 9 Raz-This_Is_Love-(Regm40)-SINGLE-WEB-2026-FALCON
2026-04-29 21:16:25 Trance 5 19 Hardynez_And_Mexic4in-Awakened_Minds-(PD049)-SINGLE-WEB-2026-FALCON
2026-04-29 21:15:56 Techno 7 42 Fathers_Of_Anarchy-Governmental_Skyzofrenia-(CFM173)-WEB-2026-FALCON
2026-04-29 21:15:20 Techno 5 5 Dark_Alchemy-Exploration_Of_Space_Schranz_Rework-(AM10567)-SINGLE-WEB-2026-FALCON
2026-04-29 21:14:51 Trance 5 19 Captain_Hook-The_Power_Of_Now_Shayman_Remix-(IBOGADIGITAL1035)-SINGLE-WEB-2026-FALCON
2026-04-29 21:14:21 Techno 5 13 ATMOS_XII-Vesuvius-(BOV032)-SINGLE-WEB-2026-FALCON
2026-04-29 21:13:45 Techno 7 40 2CROW-Sangre_De_Jesus-(WWR389)-WEB-2026-FALCON
2026-04-29 20:57:41 Techno 14 124 VA-The_Six-(BTD021)-WEB-2026-TR
2026-04-29 20:52:40 Techno 14 340 VA-The_Six-(BTD021)-16BIT-WEB-FLAC-2026-TR
2026-04-29 20:52:31 Techno 8 129 VA-The_Butterfly_Came_Here-(LRG001)-16BIT-WEB-FLAC-2026-TR
2026-04-29 20:51:39 Techno 8 51 VA-The_Butterfly_Came_Here-(LRG001)-WEB-2026-TR
2026-04-29 20:51:38 Techno 15 138 VA-Origo_LP-(SSSDIG001)-WEB-2026-TR
2026-04-29 20:50:54 Techno 10 76 VA-Praa_Sands-(BS1818010)-WEB-2026-TR
2026-04-29 20:50:43 Techno 10 221 VA-Praa_Sands-(BS1818010)-16BIT-WEB-FLAC-2026-TR
2026-04-29 20:49:13 Techno 15 391 VA-Origo_LP-(SSSDIG001)-16BIT-WEB-FLAC-2026-TR
2026-04-29 20:49:09 Techno 16 476 Scibor-Searching_for_Colors-(QNE019)-16BIT-WEB-FLAC-2026-TR
2026-04-29 20:47:29 Techno 16 192 Scibor-Searching_for_Colors-(QNE019)-WEB-2026-TR
2026-04-29 20:45:46 Techno 8 49 Risto-Core_Tension-WEB-2026-TR
2026-04-29 20:45:30 Techno 8 100 Risto-Core_Tension-16BIT-WEB-FLAC-2026-TR
2026-04-29 20:41:40 Techno 6 24 Jon_Head-Acid_Kiss-(ATTITUDE016)-WEB-2026-TR
2026-04-29 20:41:15 Techno 6 74 Jon_Head-Acid_Kiss-(ATTITUDE016)-16BIT-WEB-FLAC-2026-TR
2026-04-29 20:39:46 Techno 8 49 Downside_and_Dictent_Vroom-Half_Sided_Series_3-(PM012)-WEB-2026-TR
2026-04-29 20:38:59 Techno 8 131 Downside_and_Dictent_Vroom-Half_Sided_Series_3-(PM012)-16BIT-WEB-FLAC-2026-TR
2026-04-29 20:38:37 Techno 9 179 Dean_Grenier-Four_The_Eight-(HW005)-16BIT-WEB-FLAC-2026-TR
2026-04-29 20:38:31 Techno 9 68 Dean_Grenier-Four_The_Eight-(HW005)-WEB-2026-TR
2026-04-29 20:37:33 Techno 7 97 Carlo_Lio-Supasonic-(OES056)-16BIT-WEB-FLAC-2026-TR
2026-04-29 20:37:30 Techno 7 35 Carlo_Lio-Supasonic-(OES056)-WEB-2026-TR
2026-04-29 20:37:30 Techno 8 58 Bete_Imaginaire-Altered_Reality_EP-(ATRBI0012)-WEB-2026-TR
2026-04-29 20:36:24 Techno 8 156 Bete_Imaginaire-Altered_Reality_EP-(ATRBI0012)-16BIT-WEB-FLAC-2026-TR
2026-04-29 20:35:47 Techno 8 48 Andrew_Block-Primitive_Warfare_EP-(TZNM015)-WEB-2026-TR
2026-04-29 20:35:45 Techno 8 108 Andrew_Block-Primitive_Warfare_EP-(TZNM015)-16BIT-WEB-FLAC-2026-TR
2026-04-29 20:35:17 Techno 8 55 Brandon_De_Carlo-A_Thousand_Cuts_Vol._2-(DUR096)-WEB-2026-BB